Montmelo, Spain
Current Conditions -  °F | °C
As of 5:00 AM on Sunday 26 Oct 2014 (Local Time) from LEBL Reporting Station
Few Clouds Few Clouds  
Wind Chill: 16°   Ceiling: Unl
Heat Index: 16°   Visibility: 6mi
Dew Point: 14°   Wind: 8mph
Humidity: 88%   Direction: 330°NNW
Pressure: 30.15"   Gusts: NA
Location:  41.55°N, 2.24°E
Report Text: LEBL 260300Z 33007KT 9000 FEW013 16/14 Q1021 NOSIG
Loading
Personal Weather Stations






























Interactive Weather Map
Tropical Storm Tracking
New forecast layout! Learn more

10-Day Weather Forecast

Advertisements
Track Severe Weather on mobile